Time;durP1;ratioP1;P1;durP2;ratioP2;P2;SDS_P1;SDS_P2;PMS_P1;PMS_P2;Temp;Humidity;BMP_temperature;BMP_pressure;BME280_temperature;BME280_humidity;BME280_pressure;Samples;Min_cycle;Max_cycle;Signal;HPM_P1;HPM_P2
2023/06/08 00:00:50;;;;;;;14.88;8.15;;;12.20;79.30;;;;;;5047263;28;20033;-62
2023/06/08 00:03:19;;;;;;;13.30;7.35;;;12.20;79.90;;;;;;5046124;28;20069;-62
2023/06/08 00:05:49;;;;;;;16.27;7.25;;;12.10;79.70;;;;;;5046313;28;20040;-63
2023/06/08 00:08:15;;;;;;;18.52;7.45;;;12.20;79.40;;;;;;5044811;28;20121;-62
2023/06/08 00:10:42;;;;;;;17.20;7.57;;;12.20;79.30;;;;;;5047558;28;20052;-62
2023/06/08 00:13:08;;;;;;;16.77;7.70;;;12.20;79.50;;;;;;5042456;28;20045;-62
2023/06/08 00:15:33;;;;;;;14.27;7.32;;;12.20;79.40;;;;;;5047020;28;20131;-62
2023/06/08 00:18:00;;;;;;;11.38;6.85;;;12.20;79.40;;;;;;5043464;28;20030;-61
2023/06/08 00:20:26;;;;;;;18.52;8.02;;;12.30;79.40;;;;;;5029361;28;20044;-62
2023/06/08 00:22:52;;;;;;;24.15;10.20;;;12.20;79.30;;;;;;5020060;28;20040;-61
2023/06/08 00:25:17;;;;;;;23.38;9.82;;;12.20;79.20;;;;;;5048636;28;20041;-62
2023/06/08 00:27:43;;;;;;;19.13;10.02;;;12.30;79.10;;;;;;5049577;28;20501;-62
2023/06/08 00:30:09;;;;;;;20.75;10.05;;;12.20;79.20;;;;;;5040164;28;20041;-62
2023/06/08 00:32:35;;;;;;;17.55;9.07;;;12.20;79.10;;;;;;5043561;28;20052;-62
2023/06/08 00:35:01;;;;;;;22.80;11.07;;;12.20;79.20;;;;;;5019235;28;20045;-62
2023/06/08 00:37:26;;;;;;;19.30;9.57;;;12.20;79.30;;;;;;5051672;28;20120;-62
2023/06/08 00:39:52;;;;;;;23.73;10.35;;;12.20;79.20;;;;;;5040435;28;20496;-61
2023/06/08 00:42:17;;;;;;;25.75;10.07;;;12.10;79.20;;;;;;5045895;28;20060;-61
2023/06/08 00:44:43;;;;;;;19.88;9.40;;;12.10;79.50;;;;;;5046700;28;20029;-62
2023/06/08 00:47:09;;;;;;;27.67;9.00;;;12.10;79.30;;;;;;5037222;28;20042;-63
2023/06/08 00:49:35;;;;;;;15.38;8.45;;;12.10;79.50;;;;;;5030957;28;20081;-63
2023/06/08 00:52:01;;;;;;;20.95;8.70;;;12.10;79.30;;;;;;5033614;28;20072;-63
2023/06/08 00:54:30;;;;;;;24.58;9.95;;;12.10;79.30;;;;;;5049083;28;20036;-62
2023/06/08 00:57:00;;;;;;;21.30;8.73;;;12.10;79.30;;;;;;5044049;28;20044;-62
2023/06/08 00:59:31;;;;;;;21.73;10.82;;;12.10;79.30;;;;;;5046181;28;20047;-62
2023/06/08 01:01:57;;;;;;;28.38;12.07;;;12.10;79.50;;;;;;5042203;28;20057;-62
2023/06/08 01:04:26;;;;;;;25.88;12.15;;;12.10;79.70;;;;;;5042841;28;20048;-62
2023/06/08 01:07:14;;;;;;;30.73;13.65;;;12.10;79.70;;;;;;5040673;28;20132;-61
2023/06/08 01:10:02;;;;;;;28.00;12.52;;;12.10;79.90;;;;;;5030888;28;20072;-62
2023/06/08 01:12:30;;;;;;;28.02;11.88;;;12.10;80.00;;;;;;5039139;28;20045;-61
2023/06/08 01:15:18;;;;;;;28.40;10.80;;;12.10;79.40;;;;;;5030826;28;20060;-62
2023/06/08 01:17:52;;;;;;;23.67;9.93;;;12.10;80.60;;;;;;5032650;28;20085;-64
2023/06/08 01:20:32;;;;;;;22.02;8.27;;;12.00;79.70;;;;;;5032675;28;20055;-61
2023/06/08 01:23:12;;;;;;;20.83;8.45;;;12.00;79.80;;;;;;5040668;28;20353;-62
2023/06/08 01:25:40;;;;;;;14.27;7.63;;;12.00;79.80;;;;;;5029506;28;20045;-62
2023/06/08 01:28:12;;;;;;;20.25;7.88;;;11.90;79.80;;;;;;5037067;28;20037;-62
2023/06/08 01:30:46;;;;;;;14.57;7.13;;;12.00;79.70;;;;;;5040525;28;20044;-62
2023/06/08 01:33:16;;;;;;;18.00;7.55;;;12.00;79.80;;;;;;5035227;28;20401;-64
2023/06/08 01:35:46;;;;;;;13.15;6.85;;;11.90;79.80;;;;;;5041569;28;20037;-63
2023/06/08 01:38:20;;;;;;;12.75;6.63;;;12.00;79.90;;;;;;5034125;28;20140;-61
2023/06/08 01:40:54;;;;;;;21.13;7.53;;;12.00;79.80;;;;;;5037870;28;20347;-62
2023/06/08 01:43:22;;;;;;;17.98;7.40;;;12.00;80.10;;;;;;5042501;28;20040;-62
2023/06/08 01:45:51;;;;;;;14.43;6.72;;;12.00;79.90;;;;;;5044700;28;20048;-62
2023/06/08 01:48:21;;;;;;;16.30;8.02;;;12.00;79.90;;;;;;5043988;28;20069;-63
2023/06/08 01:50:48;;;;;;;19.08;7.97;;;12.00;79.90;;;;;;5043711;28;20067;-63
2023/06/08 01:53:16;;;;;;;12.48;7.70;;;12.00;79.90;;;;;;5041122;28;20071;-62
2023/06/08 01:55:41;;;;;;;16.35;7.90;;;12.00;80.10;;;;;;5029765;28;20033;-62
2023/06/08 01:58:07;;;;;;;21.35;8.93;;;12.00;79.90;;;;;;5046556;28;20106;-62
2023/06/08 02:00:32;;;;;;;20.13;8.07;;;12.00;79.90;;;;;;5045621;28;20067;-62
2023/06/08 02:02:58;;;;;;;18.92;7.97;;;11.90;80.20;;;;;;5030298;28;20094;-62
2023/06/08 02:05:24;;;;;;;16.25;7.45;;;11.90;80.20;;;;;;5043552;28;20048;-63
2023/06/08 02:07:49;;;;;;;16.00;8.07;;;11.90;80.20;;;;;;5045362;28;20083;-63
2023/06/08 02:10:16;;;;;;;18.80;7.82;;;11.90;79.80;;;;;;5039640;28;20483;-62
2023/06/08 02:12:42;;;;;;;14.63;8.63;;;11.90;79.80;;;;;;5041390;28;20048;-63
2023/06/08 02:15:08;;;;;;;15.75;8.15;;;11.90;79.80;;;;;;5046002;28;20048;-62
2023/06/08 02:17:35;;;;;;;21.73;8.88;;;11.80;80.00;;;;;;5044993;28;20029;-63
2023/06/08 02:20:05;;;;;;;13.00;7.88;;;11.80;80.20;;;;;;5043838;28;20029;-62
2023/06/08 02:22:31;;;;;;;17.65;8.23;;;11.80;80.30;;;;;;5039963;28;20040;-64
2023/06/08 02:24:57;;;;;;;21.25;8.85;;;11.80;80.20;;;;;;5034801;28;20052;-64
2023/06/08 02:27:22;;;;;;;15.93;8.30;;;11.80;80.60;;;;;;5042798;28;20053;-62
2023/06/08 02:29:48;;;;;;;17.27;8.93;;;11.80;80.30;;;;;;5035501;28;20048;-62
2023/06/08 02:32:14;;;;;;;22.27;8.93;;;11.70;80.40;;;;;;5036362;28;20099;-62
2023/06/08 02:34:40;;;;;;;18.67;9.27;;;11.80;80.20;;;;;;5036616;28;20036;-62
2023/06/08 02:37:06;;;;;;;19.67;8.65;;;11.80;80.20;;;;;;5033185;28;20445;-63
2023/06/08 02:39:31;;;;;;;19.15;9.10;;;11.80;80.30;;;;;;5041781;28;20043;-61
2023/06/08 02:41:57;;;;;;;18.23;9.55;;;11.80;80.60;;;;;;5042318;28;20738;-62
2023/06/08 02:44:23;;;;;;;19.10;9.27;;;11.80;80.50;;;;;;5037434;28;20457;-62
2023/06/08 02:46:48;;;;;;;20.70;9.45;;;11.80;80.30;;;;;;5038251;28;20056;-62
2023/06/08 02:49:14;;;;;;;18.60;9.40;;;11.80;80.40;;;;;;5042838;28;20130;-62
2023/06/08 02:51:40;;;;;;;24.33;10.52;;;11.80;80.20;;;;;;5035636;28;20041;-62
2023/06/08 02:54:05;;;;;;;20.95;9.68;;;11.80;80.20;;;;;;5036476;28;20040;-62
2023/06/08 02:56:31;;;;;;;22.90;9.82;;;11.90;80.30;;;;;;5042577;28;20044;-62
2023/06/08 02:58:57;;;;;;;22.15;9.63;;;11.90;80.30;;;;;;5042647;28;20033;-61
2023/06/08 03:01:23;;;;;;;19.00;9.07;;;11.90;80.30;;;;;;5041009;28;20041;-64
2023/06/08 03:03:53;;;;;;;22.13;9.20;;;11.90;80.30;;;;;;5042956;28;20052;-63
2023/06/08 03:06:19;;;;;;;21.17;9.30;;;11.90;81.00;;;;;;5031252;28;20472;-62
2023/06/08 03:08:53;;;;;;;21.13;10.20;;;11.90;80.30;;;;;;5029840;28;20041;-63
2023/06/08 03:11:20;;;;;;;18.33;9.07;;;11.90;80.50;;;;;;5038820;28;20117;-61
2023/06/08 03:13:46;;;;;;;18.58;8.65;;;11.90;80.30;;;;;;5036665;28;20041;-62
2023/06/08 03:16:12;;;;;;;21.63;9.45;;;12.00;80.30;;;;;;5037723;28;20044;-62
2023/06/08 03:18:39;;;;;;;23.88;9.52;;;11.90;80.70;;;;;;5034313;28;20063;-61
2023/06/08 03:21:07;;;;;;;16.35;8.10;;;12.00;80.60;;;;;;5030694;28;20056;-62
2023/06/08 03:23:37;;;;;;;21.98;10.02;;;11.90;80.60;;;;;;5040855;28;20041;-61
2023/06/08 03:26:03;;;;;;;21.08;8.13;;;11.90;80.60;;;;;;5038344;28;20532;-64
2023/06/08 03:28:29;;;;;;;22.65;9.85;;;11.90;80.70;;;;;;5039150;28;20116;-61
2023/06/08 03:30:54;;;;;;;18.38;8.88;;;11.90;80.80;;;;;;5043046;28;20041;-62
2023/06/08 03:33:20;;;;;;;16.75;9.18;;;11.90;80.60;;;;;;5037392;28;20048;-62
2023/06/08 03:35:46;;;;;;;20.50;9.18;;;11.90;80.60;;;;;;5038107;28;20033;-62
2023/06/08 03:38:12;;;;;;;19.23;9.35;;;12.00;80.90;;;;;;5028704;28;20092;-62
2023/06/08 03:40:37;;;;;;;18.48;9.70;;;12.00;80.80;;;;;;5047685;28;20414;-61
2023/06/08 03:43:03;;;;;;;20.90;8.77;;;11.90;81.00;;;;;;5042405;28;20080;-61
2023/06/08 03:45:29;;;;;;;18.90;10.20;;;11.90;80.90;;;;;;5039865;28;20048;-62
2023/06/08 03:47:55;;;;;;;18.83;9.35;;;11.90;81.10;;;;;;5047220;28;20489;-62
2023/06/08 03:50:21;;;;;;;19.50;9.13;;;11.90;81.00;;;;;;5044573;28;20109;-62
2023/06/08 03:52:47;;;;;;;23.88;10.50;;;12.00;80.90;;;;;;5041916;28;20044;-62
2023/06/08 03:55:13;;;;;;;19.65;9.20;;;12.00;81.00;;;;;;5048014;28;20064;-63
2023/06/08 03:57:39;;;;;;;17.45;8.57;;;12.00;80.80;;;;;;5043503;28;20098;-62
2023/06/08 04:00:11;;;;;;;22.63;9.15;;;11.90;80.90;;;;;;5045007;28;20060;-61
2023/06/08 04:02:37;;;;;;;17.33;8.50;;;11.90;80.80;;;;;;5039835;28;20075;-61
2023/06/08 04:05:04;;;;;;;18.13;8.27;;;11.90;80.80;;;;;;5040925;28;20049;-62
2023/06/08 04:07:32;;;;;;;14.95;6.72;;;11.90;81.10;;;;;;5062296;28;20147;-64
2023/06/08 04:09:58;;;;;;;15.25;7.03;;;11.90;81.20;;;;;;5046807;28;20151;-62
2023/06/08 04:12:23;;;;;;;19.75;7.78;;;11.90;81.40;;;;;;5034574;28;20041;-61
2023/06/08 04:14:49;;;;;;;12.80;7.00;;;11.90;81.20;;;;;;5046425;28;20182;-61
2023/06/08 04:17:15;;;;;;;17.63;7.10;;;11.90;81.10;;;;;;5044686;28;20068;-63
2023/06/08 04:19:41;;;;;;;18.55;8.07;;;11.90;81.20;;;;;;5048764;28;20112;-63
2023/06/08 04:22:07;;;;;;;14.35;7.20;;;12.00;81.10;;;;;;5047826;28;20250;-62
2023/06/08 04:24:33;;;;;;;14.98;7.28;;;12.00;80.90;;;;;;5048659;28;20614;-62
2023/06/08 04:26:59;;;;;;;12.55;6.40;;;12.00;81.00;;;;;;5042726;28;20056;-62
2023/06/08 04:29:25;;;;;;;17.58;6.57;;;12.00;80.90;;;;;;5040228;28;20048;-62
2023/06/08 04:31:51;;;;;;;13.15;6.68;;;12.10;81.00;;;;;;5048679;28;20334;-61
2023/06/08 04:34:17;;;;;;;14.23;6.30;;;12.10;80.60;;;;;;5044603;28;20045;-62
2023/06/08 04:36:43;;;;;;;14.40;7.20;;;12.10;80.90;;;;;;5045602;28;20029;-61
2023/06/08 04:39:09;;;;;;;15.40;7.53;;;12.10;80.70;;;;;;5037270;28;20033;-61
2023/06/08 04:41:35;;;;;;;17.77;7.38;;;12.20;80.50;;;;;;5038430;28;20485;-62
2023/06/08 04:44:02;;;;;;;15.48;7.25;;;12.20;80.50;;;;;;5044091;28;20155;-62
2023/06/08 04:46:33;;;;;;;17.73;6.78;;;12.20;80.40;;;;;;5042841;28;20025;-61
2023/06/08 04:48:59;;;;;;;15.00;7.93;;;12.20;80.70;;;;;;5041385;28;20204;-63
2023/06/08 04:51:29;;;;;;;18.25;7.43;;;12.30;80.50;;;;;;5040594;28;20036;-62
2023/06/08 04:53:56;;;;;;;15.82;7.47;;;12.30;80.50;;;;;;5033791;28;20107;-62
2023/06/08 04:56:23;;;;;;;16.88;7.00;;;12.40;80.40;;;;;;5044111;28;20059;-61
2023/06/08 04:58:49;;;;;;;15.57;7.55;;;12.40;80.90;;;;;;5048533;28;20482;-62
2023/06/08 05:01:15;;;;;;;16.88;7.47;;;12.50;80.80;;;;;;5042427;28;20084;-62
2023/06/08 05:03:42;;;;;;;16.27;7.70;;;12.50;80.10;;;;;;5046830;28;20037;-64
2023/06/08 05:06:08;;;;;;;18.63;7.28;;;12.60;79.80;;;;;;5045573;28;20165;-63
2023/06/08 05:08:34;;;;;;;22.48;7.95;;;12.60;79.80;;;;;;5046994;28;20053;-62
2023/06/08 05:10:59;;;;;;;16.13;8.07;;;12.70;79.60;;;;;;5044682;28;20037;-63
2023/06/08 05:13:25;;;;;;;19.33;7.10;;;12.70;79.60;;;;;;5046210;28;20080;-63
2023/06/08 05:15:50;;;;;;;16.05;7.15;;;12.80;80.30;;;;;;5048045;28;20041;-62
2023/06/08 05:18:16;;;;;;;12.98;6.88;;;12.90;79.30;;;;;;5041809;28;20032;-62
2023/06/08 05:20:41;;;;;;;19.30;7.40;;;12.90;79.20;;;;;;5048598;28;20041;-64
2023/06/08 05:23:07;;;;;;;16.45;7.25;;;12.90;79.00;;;;;;5047410;28;20128;-62
2023/06/08 05:25:36;;;;;;;15.10;7.70;;;13.00;79.20;;;;;;5047341;28;20089;-62
2023/06/08 05:28:05;;;;;;;20.02;8.00;;;13.10;79.00;;;;;;5046832;28;20337;-62
2023/06/08 05:30:31;;;;;;;14.25;7.50;;;13.20;78.80;;;;;;5046917;28;20071;-62
2023/06/08 05:32:57;;;;;;;13.07;7.30;;;13.30;78.70;;;;;;5046527;28;20040;-63
2023/06/08 05:35:22;;;;;;;14.60;7.50;;;13.30;78.30;;;;;;5039441;28;20033;-62
2023/06/08 05:37:48;;;;;;;19.98;7.85;;;13.40;78.30;;;;;;5044623;28;20913;-62
2023/06/08 05:40:14;;;;;;;16.02;7.05;;;13.50;78.00;;;;;;5045386;28;20083;-62
2023/06/08 05:42:40;;;;;;;15.23;6.90;;;13.60;77.90;;;;;;5044779;28;20071;-63
2023/06/08 05:45:06;;;;;;;14.13;7.10;;;13.60;77.80;;;;;;5046747;28;20050;-63
2023/06/08 05:47:32;;;;;;;18.00;6.97;;;13.70;77.60;;;;;;5046184;28;20053;-62
2023/06/08 05:49:57;;;;;;;16.95;6.97;;;13.90;77.40;;;;;;5041714;28;20059;-62
2023/06/08 05:52:23;;;;;;;15.77;7.45;;;14.00;77.20;;;;;;5046352;28;20044;-62
2023/06/08 05:54:50;;;;;;;19.15;7.93;;;14.00;77.00;;;;;;5047139;28;20177;-63
2023/06/08 05:57:17;;;;;;;27.02;9.77;;;14.10;76.70;;;;;;5045925;28;20055;-63
2023/06/08 05:59:42;;;;;;;18.58;7.65;;;14.20;76.50;;;;;;5045897;28;20045;-63
2023/06/08 06:02:08;;;;;;;20.33;8.07;;;14.30;76.30;;;;;;5028505;28;20195;-62
2023/06/08 06:04:35;;;;;;;17.10;8.13;;;14.30;76.10;;;;;;5044841;28;20498;-63
2023/06/08 06:07:01;;;;;;;17.67;7.43;;;14.40;76.90;;;;;;5042014;28;20068;-64
2023/06/08 06:09:26;;;;;;;17.10;7.45;;;14.50;76.00;;;;;;5044759;28;20569;-64
2023/06/08 06:11:52;;;;;;;18.75;7.78;;;14.50;76.00;;;;;;5041120;28;20126;-62
2023/06/08 06:14:18;;;;;;;18.80;7.78;;;14.60;75.80;;;;;;5041829;28;20041;-63
2023/06/08 06:16:43;;;;;;;15.27;7.30;;;14.70;75.60;;;;;;5037553;28;20039;-62
2023/06/08 06:19:09;;;;;;;13.98;7.57;;;14.90;75.50;;;;;;5038520;28;20080;-63
2023/06/08 06:21:35;;;;;;;17.08;7.47;;;15.20;75.20;;;;;;5033801;28;20206;-63
2023/06/08 06:24:01;;;;;;;11.25;6.82;;;15.40;75.20;;;;;;5042848;28;20472;-63
2023/06/08 06:26:26;;;;;;;15.77;6.75;;;15.50;75.20;;;;;;5041341;28;20033;-65
2023/06/08 06:28:52;;;;;;;20.38;5.97;;;15.70;74.70;;;;;;5044502;28;20095;-63
2023/06/08 06:31:17;;;;;;;14.48;6.70;;;15.80;74.20;;;;;;5040563;28;20525;-64
2023/06/08 06:33:43;;;;;;;10.55;5.45;;;16.00;73.70;;;;;;5034128;28;20033;-63
2023/06/08 06:36:08;;;;;;;10.35;4.82;;;16.30;72.90;;;;;;5039982;28;20082;-65
2023/06/08 06:38:34;;;;;;;14.55;5.72;;;16.40;72.40;;;;;;5041516;28;20449;-64
2023/06/08 06:40:59;;;;;;;14.20;5.30;;;16.50;71.60;;;;;;5043218;28;20361;-65
2023/06/08 06:43:25;;;;;;;11.18;4.80;;;16.70;70.80;;;;;;5027415;28;20068;-63
2023/06/08 06:45:51;;;;;;;12.60;5.00;;;16.90;69.90;;;;;;5030058;28;20503;-63
2023/06/08 06:48:19;;;;;;;9.40;4.97;;;17.10;69.50;;;;;;5033960;28;20528;-64
2023/06/08 06:50:45;;;;;;;9.75;5.15;;;17.00;68.50;;;;;;5031478;28;20132;-64
2023/06/08 06:53:11;;;;;;;14.23;5.03;;;17.30;68.60;;;;;;5036688;28;20607;-63
2023/06/08 06:55:37;;;;;;;10.85;4.63;;;17.40;68.20;;;;;;5033247;28;20041;-65
2023/06/08 06:58:02;;;;;;;11.23;5.22;;;17.50;67.70;;;;;;5041270;28;20028;-62
2023/06/08 07:00:37;;;;;;;13.65;5.13;;;17.70;67.20;;;;;;5035545;28;20037;-60
2023/06/08 07:03:04;;;;;;;9.93;4.70;;;17.80;64.90;;;;;;5031153;28;20062;-63
2023/06/08 07:05:30;;;;;;;7.88;4.80;;;18.00;66.10;;;;;;5039318;28;20040;-63
2023/06/08 07:07:56;;;;;;;12.18;5.43;;;18.10;65.60;;;;;;5038474;28;20052;-63
2023/06/08 07:10:21;;;;;;;11.43;5.45;;;18.20;65.20;;;;;;5042085;28;20060;-63
2023/06/08 07:12:47;;;;;;;11.55;5.20;;;18.30;64.50;;;;;;5035280;28;20155;-63
2023/06/08 07:15:13;;;;;;;14.65;4.80;;;18.30;64.10;;;;;;5032567;28;20115;-64
2023/06/08 07:17:39;;;;;;;9.32;4.88;;;18.60;63.70;;;;;;5031008;28;20422;-63
2023/06/08 07:20:05;;;;;;;13.45;4.45;;;18.70;63.20;;;;;;5032985;28;20055;-61
2023/06/08 07:22:31;;;;;;;7.68;4.03;;;18.90;62.20;;;;;;5039265;28;20041;-63
2023/06/08 07:24:57;;;;;;;7.30;4.78;;;19.10;61.40;;;;;;5037870;28;20151;-62
2023/06/08 07:27:22;;;;;;;11.38;4.07;;;19.30;60.80;;;;;;5040034;28;20123;-61
2023/06/08 07:29:48;;;;;;;11.50;5.13;;;19.50;60.40;;;;;;5033489;28;20449;-64
2023/06/08 07:32:13;;;;;;;11.73;5.10;;;19.40;60.20;;;;;;5048385;28;20041;-66
2023/06/08 07:34:39;;;;;;;8.85;4.35;;;19.50;60.30;;;;;;5053151;28;20122;-62
2023/06/08 07:37:05;;;;;;;7.20;3.80;;;19.60;59.70;;;;;;5042747;28;20056;-61
2023/06/08 07:39:31;;;;;;;15.07;4.60;;;20.00;58.70;;;;;;5035140;28;20413;-61
2023/06/08 07:41:56;;;;;;;13.35;4.45;;;20.00;57.50;;;;;;5048977;28;20040;-63
2023/06/08 07:44:22;;;;;;;9.20;3.65;;;19.80;57.10;;;;;;5051043;28;20037;-62
2023/06/08 07:46:47;;;;;;;8.43;4.10;;;20.00;56.70;;;;;;5044985;28;20044;-61
2023/06/08 07:49:13;;;;;;;12.30;4.72;;;20.20;56.30;;;;;;5045128;28;20045;-61
2023/06/08 07:51:38;;;;;;;9.85;4.20;;;20.30;55.60;;;;;;5047709;28;20693;-62
2023/06/08 07:54:04;;;;;;;8.73;4.38;;;20.50;55.40;;;;;;5037300;28;20049;-61
2023/06/08 07:56:30;;;;;;;12.55;4.53;;;20.60;55.10;;;;;;5038456;28;20033;-62
2023/06/08 07:58:56;;;;;;;9.15;4.45;;;20.70;54.80;;;;;;5038153;28;20086;-62
2023/06/08 08:01:22;;;;;;;10.38;3.75;;;20.70;54.40;;;;;;5029221;28;20053;-61
2023/06/08 08:03:47;;;;;;;8.65;3.90;;;21.10;53.70;;;;;;5037766;28;20445;-64
2023/06/08 08:06:13;;;;;;;10.05;4.70;;;21.30;53.30;;;;;;5034146;28;20056;-64
2023/06/08 08:08:39;;;;;;;8.85;4.30;;;21.60;52.80;;;;;;5037062;28;20060;-62
2023/06/08 08:11:04;;;;;;;9.70;4.00;;;21.70;52.60;;;;;;5034550;28;20049;-62
2023/06/08 08:13:30;;;;;;;8.98;4.05;;;22.00;51.70;;;;;;5044103;28;20060;-63
2023/06/08 08:15:55;;;;;;;12.13;4.88;;;22.20;51.10;;;;;;5049242;28;20140;-61
2023/06/08 08:18:21;;;;;;;11.70;5.25;;;22.60;49.90;;;;;;5044252;28;20033;-62
2023/06/08 08:20:46;;;;;;;14.85;4.97;;;22.60;49.30;;;;;;5044205;28;20034;-63
2023/06/08 08:23:12;;;;;;;11.65;5.18;;;22.80;49.00;;;;;;5038529;28;20079;-62
2023/06/08 08:25:38;;;;;;;11.05;5.22;;;22.80;48.50;;;;;;5040882;28;20056;-62
2023/06/08 08:28:04;;;;;;;9.85;4.65;;;22.60;48.20;;;;;;5047593;28;20048;-63
2023/06/08 08:30:30;;;;;;;10.82;4.70;;;22.40;48.60;;;;;;5045823;28;20072;-63
2023/06/08 08:32:56;;;;;;;10.90;4.95;;;22.40;48.20;;;;;;5042053;28;20037;-63
2023/06/08 08:35:28;;;;;;;10.95;4.28;;;22.20;47.90;;;;;;5049445;28;20063;-62
2023/06/08 08:37:53;;;;;;;10.20;4.10;;;22.00;48.10;;;;;;5040849;28;20127;-62
2023/06/08 08:40:19;;;;;;;10.35;4.45;;;22.10;47.80;;;;;;5047687;28;20271;-62
2023/06/08 08:42:48;;;;;;;9.85;4.45;;;22.10;47.90;;;;;;5043270;28;20484;-63
2023/06/08 08:45:16;;;;;;;10.23;4.28;;;22.30;47.50;;;;;;5047831;28;20406;-63
2023/06/08 08:47:42;;;;;;;10.13;4.20;;;22.40;47.20;;;;;;5049258;28;20113;-62
2023/06/08 08:50:17;;;;;;;11.40;3.80;;;22.20;47.00;;;;;;5042112;28;20057;-63
2023/06/08 08:52:45;;;;;;;8.88;3.83;;;22.00;47.30;;;;;;5046480;28;20117;-63
2023/06/08 08:55:11;;;;;;;8.18;4.22;;;22.40;46.30;;;;;;5045283;28;20049;-62
2023/06/08 08:57:37;;;;;;;7.63;3.75;;;22.80;45.50;;;;;;5042598;28;20044;-63
2023/06/08 09:00:06;;;;;;;8.90;3.42;;;23.80;44.50;;;;;;5047013;28;20528;-63
2023/06/08 09:02:35;;;;;;;8.80;3.75;;;24.70;43.80;;;;;;5040874;28;20120;-63
2023/06/08 09:05:03;;;;;;;11.77;4.30;;;24.90;43.20;;;;;;5045543;28;20041;-63
2023/06/08 09:07:30;;;;;;;10.65;3.90;;;25.30;41.90;;;;;;5040917;28;20098;-64
2023/06/08 09:10:22;;;;;;;8.52;3.55;;;25.90;41.20;;;;;;5047571;28;20060;-64
2023/06/08 09:12:49;;;;;;;8.48;4.07;;;26.20;39.80;;;;;;5043112;28;20052;-63
2023/06/08 09:15:33;;;;;;;8.18;4.07;;;26.40;39.70;;;;;;5041310;28;20087;-63
2023/06/08 09:18:13;;;;;;;10.57;4.20;;;27.00;37.70;;;;;;5039959;28;20564;-62
2023/06/08 09:20:39;;;;;;;11.23;3.90;;;27.30;37.70;;;;;;5047426;28;20052;-65
2023/06/08 09:23:15;;;;;;;7.70;4.18;;;27.40;37.40;;;;;;5029622;28;20068;-63
2023/06/08 09:25:41;;;;;;;6.18;3.58;;;27.30;36.20;;;;;;5046093;28;20558;-63
2023/06/08 09:28:28;;;;;;;9.50;3.65;;;27.70;36.50;;;;;;5049527;28;20082;-65
2023/06/08 09:31:00;;;;;;;12.10;4.50;;;28.20;34.80;;;;;;5048173;28;20120;-63
2023/06/08 09:33:32;;;;;;;9.35;3.60;;;28.20;35.90;;;;;;5043143;28;20124;-64
2023/06/08 09:35:58;;;;;;;8.38;3.78;;;28.70;34.80;;;;;;5036835;28;20041;-63
2023/06/08 09:38:28;;;;;;;7.30;3.80;;;28.90;34.80;;;;;;5047479;28;20094;-65
2023/06/08 09:41:15;;;;;;;8.30;4.25;;;29.20;34.50;;;;;;5042283;28;20048;-65
2023/06/08 09:43:46;;;;;;;9.32;4.05;;;29.60;32.40;;;;;;5037843;28;20418;-63
2023/06/08 09:46:16;;;;;;;6.57;3.40;;;29.90;33.60;;;;;;5042509;28;20404;-63
2023/06/08 09:48:54;;;;;;;8.48;3.63;;;30.20;32.50;;;;;;5044910;28;20057;-63
2023/06/08 09:51:22;;;;;;;9.10;3.60;;;30.20;30.70;;;;;;5043834;28;20053;-64
2023/06/08 09:53:52;;;;;;;10.43;3.70;;;30.40;31.50;;;;;;5048622;28;20087;-64
2023/06/08 09:56:18;;;;;;;7.03;3.42;;;30.80;30.90;;;;;;5042262;28;20431;-64
2023/06/08 09:58:47;;;;;;;8.20;3.83;;;31.00;30.50;;;;;;5046095;28;20500;-65
2023/06/08 10:01:15;;;;;;;8.15;3.70;;;30.90;30.00;;;;;;5048539;28;20479;-64
2023/06/08 10:03:47;;;;;;;7.93;3.55;;;30.80;29.90;;;;;;5049295;28;20037;-64
2023/06/08 10:06:14;;;;;;;7.68;3.25;;;31.30;29.20;;;;;;5044235;28;20041;-65
2023/06/08 10:08:43;;;;;;;7.82;3.70;;;31.60;29.20;;;;;;5048585;28;20037;-64
2023/06/08 10:11:11;;;;;;;8.57;3.97;;;32.10;28.50;;;;;;5047805;28;20059;-64
2023/06/08 10:13:37;;;;;;;11.50;4.70;;;32.20;28.40;;;;;;5044158;28;20120;-64
2023/06/08 10:16:03;;;;;;;10.30;3.75;;;32.20;28.10;;;;;;5040247;28;20076;-65
2023/06/08 10:18:30;;;;;;;6.90;3.30;;;32.20;28.40;;;;;;5035605;28;20041;-64
2023/06/08 10:20:57;;;;;;;10.43;4.15;;;32.30;28.70;;;;;;5043871;28;20037;-64
2023/06/08 10:23:23;;;;;;;11.68;4.13;;;32.60;28.20;;;;;;5044932;28;20072;-65
2023/06/08 10:25:50;;;;;;;8.30;4.28;;;32.70;27.80;;;;;;5043956;28;20116;-64
2023/06/08 10:28:20;;;;;;;9.18;4.22;;;32.40;27.80;;;;;;5026672;28;20118;-64
2023/06/08 10:30:46;;;;;;;9.20;4.25;;;32.50;28.30;;;;;;5039823;28;20033;-64
2023/06/08 10:33:19;;;;;;;9.73;3.78;;;32.90;27.90;;;;;;5027504;28;20056;-65
2023/06/08 10:36:05;;;;;;;9.30;4.22;;;33.00;27.80;;;;;;5038771;28;20064;-64
2023/06/08 10:38:35;;;;;;;7.03;3.65;;;33.00;27.20;;;;;;5046577;28;20123;-64
2023/06/08 10:41:01;;;;;;;10.30;3.42;;;33.30;27.20;;;;;;5045583;28;20392;-64
2023/06/08 10:43:29;;;;;;;7.38;3.97;;;33.30;27.20;;;;;;5038415;28;20057;-65
2023/06/08 10:45:57;;;;;;;7.82;3.45;;;33.80;26.80;;;;;;5034530;28;20436;-64
2023/06/08 10:48:23;;;;;;;7.68;3.83;;;33.70;26.10;;;;;;5037224;28;20057;-65
2023/06/08 10:50:50;;;;;;;6.55;3.80;;;33.70;25.90;;;;;;5034839;28;20037;-64
2023/06/08 10:53:20;;;;;;;8.95;3.60;;;33.10;26.00;;;;;;5026828;28;20140;-65
2023/06/08 10:55:50;;;;;;;12.48;3.65;;;32.60;26.80;;;;;;5037727;28;20123;-64
2023/06/08 10:58:20;;;;;;;6.90;3.35;;;31.70;27.50;;;;;;5042955;28;20092;-65
2023/06/08 11:01:05;;;;;;;8.43;3.30;;;30.70;28.50;;;;;;5044775;28;20100;-65
2023/06/08 11:03:45;;;;;;;9.65;3.65;;;29.90;28.60;;;;;;5047021;28;20098;-65
2023/06/08 11:06:15;;;;;;;7.13;3.30;;;29.20;30.50;;;;;;5048529;28;20163;-65
2023/06/08 11:08:41;;;;;;;8.80;3.30;;;28.50;31.50;;;;;;5038936;28;20101;-64
2023/06/08 11:11:09;;;;;;;6.07;3.15;;;27.70;32.50;;;;;;5032635;28;20045;-64
2023/06/08 11:13:35;;;;;;;9.13;4.10;;;27.30;33.40;;;;;;5039506;28;20060;-64
2023/06/08 11:16:01;;;;;;;7.75;2.95;;;27.20;33.60;;;;;;5041208;28;20100;-66
2023/06/08 11:18:30;;;;;;;13.48;3.33;;;26.90;34.20;;;;;;5041779;28;20156;-64
2023/06/08 11:20:58;;;;;;;8.05;3.63;;;26.80;34.10;;;;;;5054476;28;20479;-64
2023/06/08 11:23:25;;;;;;;5.97;3.03;;;26.90;34.50;;;;;;5051611;28;20045;-63
2023/06/08 11:25:51;;;;;;;8.48;3.63;;;27.00;34.30;;;;;;5054944;28;20144;-65
2023/06/08 11:28:17;;;;;;;9.48;3.65;;;26.90;34.10;;;;;;5053993;28;20071;-63
2023/06/08 11:30:43;;;;;;;9.57;3.40;;;26.80;34.50;;;;;;5053368;28;20060;-66
2023/06/08 11:33:14;;;;;;;7.38;3.88;;;26.80;34.30;;;;;;5054404;28;20049;-65
2023/06/08 11:35:39;;;;;;;6.30;3.55;;;26.70;33.60;;;;;;5035384;28;20049;-63
2023/06/08 11:38:05;;;;;;;6.72;2.92;;;26.30;33.60;;;;;;5032302;28;20044;-63
2023/06/08 11:40:32;;;;;;;6.80;3.47;;;26.20;34.10;;;;;;5033059;28;20075;-64
2023/06/08 11:42:58;;;;;;;10.40;3.45;;;26.20;34.00;;;;;;5033561;28;20038;-66
2023/06/08 11:45:24;;;;;;;6.20;3.20;;;26.20;34.30;;;;;;5034074;28;20120;-64
2023/06/08 11:47:53;;;;;;;8.50;3.40;;;26.40;34.00;;;;;;5039800;28;20072;-64
2023/06/08 11:50:19;;;;;;;10.90;4.25;;;26.50;34.00;;;;;;5052982;28;20052;-64
2023/06/08 11:52:46;;;;;;;8.07;3.83;;;26.50;33.80;;;;;;5052759;28;20338;-63
2023/06/08 11:55:16;;;;;;;7.72;3.97;;;26.50;33.60;;;;;;5053015;28;20366;-65
2023/06/08 11:57:56;;;;;;;6.78;3.72;;;26.50;32.90;;;;;;5053419;28;20037;-64
2023/06/08 12:00:33;;;;;;;7.90;3.80;;;26.30;32.30;;;;;;5047300;28;20087;-65
2023/06/08 12:03:00;;;;;;;7.05;3.35;;;26.20;33.20;;;;;;5038474;28;20172;-65
2023/06/08 12:05:28;;;;;;;8.68;3.70;;;26.40;33.40;;;;;;5047976;28;20469;-65
2023/06/08 12:08:00;;;;;;;11.25;3.65;;;26.50;33.70;;;;;;5047825;28;20037;-63
2023/06/08 12:10:37;;;;;;;11.40;4.13;;;26.50;33.60;;;;;;5050016;28;20037;-65
2023/06/08 12:13:11;;;;;;;8.32;3.53;;;27.00;33.60;;;;;;5041471;28;20046;-64
2023/06/08 12:15:42;;;;;;;8.52;4.03;;;27.20;32.70;;;;;;5037356;28;20040;-65
2023/06/08 12:18:09;;;;;;;8.70;4.10;;;27.70;32.20;;;;;;5050849;28;20116;-64
2023/06/08 12:20:35;;;;;;;8.32;4.30;;;28.20;31.80;;;;;;5039002;28;20496;-64
2023/06/08 12:23:02;;;;;;;7.88;4.30;;;29.10;31.00;;;;;;5038636;28;20083;-64
2023/06/08 12:25:31;;;;;;;8.80;3.63;;;30.40;29.90;;;;;;5031152;28;20064;-64
2023/06/08 12:27:58;;;;;;;10.20;3.75;;;31.50;29.50;;;;;;5047708;28;20052;-63
2023/06/08 12:30:24;;;;;;;9.55;4.35;;;32.60;27.80;;;;;;5048460;28;20040;-64
2023/06/08 12:32:53;;;;;;;8.55;3.85;;;33.00;26.90;;;;;;5048205;28;20044;-64
2023/06/08 12:35:21;;;;;;;6.00;3.28;;;34.30;26.20;;;;;;5036694;28;20072;-63
2023/06/08 12:37:49;;;;;;;10.43;3.90;;;35.20;25.70;;;;;;5035934;28;20040;-65
2023/06/08 12:40:18;;;;;;;6.82;4.05;;;36.10;25.10;;;;;;5045167;28;20759;-65